createdAt,value
2023-03-30T00:00:18.705Z,5.77
2023-03-30T00:04:26.711Z,5.78
2023-03-30T00:08:30.891Z,5.76
2023-03-30T00:12:33.571Z,5.71
2023-03-30T00:16:36.277Z,5.71
2023-03-30T00:20:43.068Z,5.69
2023-03-30T00:24:47.228Z,5.67
2023-03-30T00:28:49.839Z,5.70
2023-03-30T00:32:53.690Z,5.62
2023-03-30T00:36:57.535Z,5.61
2023-03-30T00:41:02.231Z,5.51
2023-03-30T00:45:18.059Z,5.50
2023-03-30T00:49:21.713Z,5.48
2023-03-30T00:53:27.566Z,5.48
2023-03-30T00:57:33.877Z,5.48
2023-03-30T01:01:39.385Z,5.45
2023-03-30T01:05:44.802Z,5.46
2023-03-30T01:09:48.133Z,5.52
2023-03-30T01:13:57.472Z,5.54
2023-03-30T01:18:30.802Z,5.55
2023-03-30T01:23:05.362Z,5.58
2023-03-30T01:27:19.149Z,5.53
2023-03-30T01:31:50.150Z,5.51
2023-03-30T01:36:24.364Z,5.46
2023-03-30T01:40:36.980Z,5.46
2023-03-30T01:44:50.126Z,5.44
2023-03-30T01:49:05.960Z,5.46
2023-03-30T01:53:15.875Z,5.47
2023-03-30T01:57:25.114Z,5.48
2023-03-30T02:01:30.712Z,5.47
2023-03-30T02:05:35.045Z,5.50
2023-03-30T02:09:43.464Z,5.61
2023-03-30T02:13:51.063Z,5.62
2023-03-30T02:17:54.149Z,5.61
2023-03-30T02:21:57.697Z,5.54
2023-03-30T02:26:03.374Z,5.58
2023-03-30T02:30:09.665Z,5.54
2023-03-30T02:34:24.388Z,5.55
2023-03-30T02:38:48.859Z,5.62
2023-03-30T02:43:04.874Z,5.61
2023-03-30T02:47:12.802Z,5.65
2023-03-30T02:51:31.998Z,5.58
2023-03-30T02:55:38.132Z,5.57
2023-03-30T02:59:48.862Z,5.61
2023-03-30T03:03:58.192Z,5.63
2023-03-30T03:08:00.836Z,5.63
2023-03-30T03:12:03.729Z,5.66
2023-03-30T03:16:10.993Z,5.69
2023-03-30T03:20:15.493Z,5.71
2023-03-30T03:24:19.001Z,5.71
2023-03-30T03:28:21.663Z,5.72
2023-03-30T03:32:24.391Z,5.74
2023-03-30T03:36:28.474Z,5.70
2023-03-30T03:40:31.236Z,5.71
2023-03-30T03:44:34.147Z,5.67
2023-03-30T03:48:36.784Z,5.67
2023-03-30T03:52:40.754Z,5.63
2023-03-30T03:56:43.597Z,5.66
2023-03-30T04:00:46.588Z,5.64
2023-03-30T04:04:49.316Z,5.54
2023-03-30T04:08:53.387Z,5.51
2023-03-30T04:12:56.207Z,5.54
2023-03-30T04:16:58.856Z,5.53
2023-03-30T04:21:05.269Z,5.51
2023-03-30T04:25:11.562Z,5.53
2023-03-30T04:29:16.763Z,5.59
2023-03-30T04:33:19.619Z,5.56
2023-03-30T04:37:24.068Z,5.58
2023-03-30T04:41:34.042Z,5.61
2023-03-30T04:45:37.252Z,5.63
2023-03-30T04:49:39.907Z,5.64
2023-03-30T04:53:42.566Z,5.55
2023-03-30T04:57:46.826Z,5.50
2023-03-30T05:01:49.525Z,5.51
2023-03-30T05:05:52.382Z,5.58
2023-03-30T05:09:55.086Z,5.64
2023-03-30T05:13:59.113Z,5.66
2023-03-30T05:18:02.190Z,5.71
2023-03-30T05:22:04.885Z,5.74
2023-03-30T05:26:08.779Z,5.76
2023-03-30T05:30:13.940Z,5.69
2023-03-30T05:34:16.675Z,5.64
2023-03-30T05:38:19.437Z,5.68
2023-03-30T05:42:22.614Z,5.75
2023-03-30T05:46:27.883Z,5.83
2023-03-30T05:50:30.921Z,5.94
2023-03-30T05:54:33.544Z,6.03
2023-03-30T05:58:36.939Z,6.18
2023-03-30T06:02:41.476Z,6.30
2023-03-30T06:06:44.929Z,6.34
2023-03-30T06:10:54.896Z,6.34
2023-03-30T06:14:57.535Z,6.36
2023-03-30T06:19:01.931Z,6.35
2023-03-30T06:23:04.699Z,6.39
2023-03-30T06:27:07.898Z,6.42
2023-03-30T06:31:12.061Z,6.45
2023-03-30T06:35:16.801Z,6.47
2023-03-30T06:39:19.462Z,6.47
2023-03-30T06:43:24.296Z,6.47
2023-03-30T06:47:27.192Z,6.47
2023-03-30T06:51:31.372Z,6.37
2023-03-30T06:55:34.378Z,6.26
2023-03-30T06:59:37.059Z,6.29
2023-03-30T07:03:41.618Z,6.48
2023-03-30T07:07:46.557Z,6.66
2023-03-30T07:11:49.279Z,6.74
2023-03-30T07:15:52.448Z,6.83
2023-03-30T07:19:55.095Z,6.98
2023-03-30T07:24:01.157Z,7.15
2023-03-30T07:28:06.587Z,7.29
2023-03-30T07:32:09.335Z,7.39
2023-03-30T07:36:12.104Z,7.55
2023-03-30T07:40:17.625Z,7.72
2023-03-30T07:44:20.694Z,7.84
2023-03-30T07:48:23.310Z,7.87
2023-03-30T07:52:27.319Z,8.03
2023-03-30T07:56:33.857Z,8.10
2023-03-30T08:00:36.569Z,8.16
2023-03-30T08:04:39.537Z,8.25
2023-03-30T08:08:43.483Z,8.23
2023-03-30T08:12:47.559Z,8.18
2023-03-30T08:16:50.321Z,8.12
2023-03-30T08:20:55.260Z,8.17
2023-03-30T08:24:58.112Z,8.22
2023-03-30T08:29:02.225Z,8.24
2023-03-30T08:33:05.131Z,8.25
2023-03-30T08:37:07.883Z,8.26
2023-03-30T08:41:39.613Z,8.14
2023-03-30T08:45:44.652Z,8.06
2023-03-30T08:49:56.611Z,8.08
2023-03-30T08:54:01.789Z,8.08
2023-03-30T08:58:11.953Z,8.16
2023-03-30T09:02:23.359Z,8.20
2023-03-30T09:06:32.973Z,8.21
2023-03-30T09:10:41.304Z,8.38
2023-03-30T09:14:49.476Z,8.59
2023-03-30T09:18:56.425Z,8.71
2023-03-30T09:23:01.863Z,8.80
2023-03-30T09:27:10.869Z,8.87
2023-03-30T09:31:20.536Z,8.75
2023-03-30T09:35:32.077Z,8.74
2023-03-30T09:39:36.892Z,8.85
2023-03-30T09:43:44.226Z,8.90
2023-03-30T09:47:47.111Z,8.86
2023-03-30T09:52:03.778Z,8.88
2023-03-30T09:56:11.800Z,8.89
2023-03-30T10:00:26.521Z,8.90
2023-03-30T10:04:29.446Z,8.94
2023-03-30T10:08:34.586Z,8.98
2023-03-30T10:12:37.476Z,9.07
2023-03-30T10:16:40.715Z,9.06
2023-03-30T10:20:44.069Z,9.02
2023-03-30T10:24:55.132Z,9.00
2023-03-30T10:29:03.321Z,8.96
2023-03-30T10:33:12.280Z,8.96
2023-03-30T10:37:18.039Z,8.94
2023-03-30T10:41:25.002Z,9.00
2023-03-30T10:45:33.662Z,9.05
2023-03-30T10:49:46.813Z,9.15
2023-03-30T10:53:59.224Z,9.19
2023-03-30T10:58:14.072Z,9.21
2023-03-30T11:02:39.749Z,9.26
2023-03-30T11:06:43.721Z,9.39
2023-03-30T11:10:49.105Z,9.39
2023-03-30T11:14:57.989Z,9.39
2023-03-30T11:19:04.374Z,9.47
2023-03-30T11:23:15.113Z,9.52
2023-03-30T11:27:27.854Z,9.53
2023-03-30T11:31:59.166Z,9.44
2023-03-30T11:36:07.806Z,9.45
2023-03-30T11:40:18.897Z,9.44
2023-03-30T11:44:21.677Z,9.42
2023-03-30T11:48:41.350Z,9.38
2023-03-30T11:52:54.700Z,9.36
2023-03-30T11:57:07.390Z,9.30
2023-03-30T12:01:27.659Z,9.29
2023-03-30T12:05:36.313Z,9.30
2023-03-30T12:09:45.678Z,9.37
2023-03-30T12:13:51.758Z,9.54
2023-03-30T12:17:59.174Z,9.64
2023-03-30T12:22:08.126Z,9.85
2023-03-30T12:26:27.429Z,10.05
2023-03-30T12:30:32.683Z,10.17
2023-03-30T12:34:37.201Z,10.35
2023-03-30T12:38:46.275Z,10.55
2023-03-30T12:43:01.737Z,10.73
2023-03-30T12:47:43.511Z,10.97
2023-03-30T12:51:58.719Z,11.35
2023-03-30T12:56:07.299Z,11.43
2023-03-30T13:00:36.370Z,11.46
2023-03-30T13:04:41.845Z,11.47
2023-03-30T13:08:45.030Z,11.45
2023-03-30T13:12:49.803Z,11.39
2023-03-30T13:17:15.884Z,11.40
2023-03-30T13:21:22.175Z,11.40
2023-03-30T13:25:37.731Z,11.36
2023-03-30T13:29:42.522Z,11.37
2023-03-30T13:33:50.792Z,11.39
2023-03-30T13:38:12.548Z,11.55
2023-03-30T13:42:32.361Z,11.67
2023-03-30T13:46:47.303Z,11.65
2023-03-30T13:50:56.185Z,11.52
2023-03-30T13:54:59.376Z,11.75
2023-03-30T13:59:06.262Z,11.90
2023-03-30T14:03:36.726Z,12.40
2023-03-30T14:07:43.525Z,12.45
2023-03-30T14:11:49.764Z,12.71
2023-03-30T14:15:52.667Z,13.14
2023-03-30T14:20:11.181Z,13.78
2023-03-30T14:24:14.679Z,13.08
2023-03-30T14:28:19.685Z,13.31
2023-03-30T14:32:23.837Z,13.53
2023-03-30T14:36:28.337Z,13.47
2023-03-30T14:40:31.567Z,13.78
2023-03-30T14:44:40.805Z,13.19
2023-03-30T14:48:45.481Z,12.88
2023-03-30T14:52:51.629Z,12.61
2023-03-30T14:56:59.765Z,12.52
2023-03-30T15:01:08.510Z,12.49
2023-03-30T15:05:12.732Z,12.44
2023-03-30T15:09:19.634Z,12.53
2023-03-30T15:13:30.159Z,12.63
2023-03-30T15:17:35.970Z,12.55
2023-03-30T15:21:39.324Z,12.51
2023-03-30T15:25:44.787Z,12.78
2023-03-30T15:29:48.208Z,13.26
2023-03-30T15:33:54.032Z,13.32
2023-03-30T15:37:58.377Z,14.06
2023-03-30T15:42:05.369Z,14.26
2023-03-30T15:46:13.873Z,14.61
2023-03-30T15:50:18.940Z,13.63
2023-03-30T15:54:25.744Z,13.50
2023-03-30T15:58:29.890Z,13.13
2023-03-30T16:02:39.539Z,13.35
2023-03-30T16:06:44.044Z,13.20
2023-03-30T16:10:48.817Z,12.93
2023-03-30T16:14:55.726Z,12.79
2023-03-30T16:19:01.322Z,12.70
2023-03-30T16:23:05.057Z,12.68
2023-03-30T16:27:07.970Z,12.57
2023-03-30T16:31:19.578Z,12.50
2023-03-30T16:35:22.804Z,12.37
2023-03-30T16:39:27.750Z,12.34
2023-03-30T16:43:30.725Z,12.36
2023-03-30T16:47:37.530Z,12.31
2023-03-30T16:51:40.622Z,12.17
2023-03-30T16:55:44.825Z,12.07
2023-03-30T16:59:47.601Z,11.96
2023-03-30T17:03:51.560Z,11.86
2023-03-30T17:07:55.593Z,11.78
2023-03-30T17:11:58.508Z,11.73
2023-03-30T17:16:02.803Z,11.64
2023-03-30T17:20:19.583Z,11.56
2023-03-30T17:24:22.256Z,11.59
2023-03-30T17:28:27.591Z,11.42
2023-03-30T17:32:30.497Z,11.23
2023-03-30T17:36:34.850Z,11.14
2023-03-30T17:40:39.098Z,11.04
2023-03-30T17:44:42.596Z,10.96
2023-03-30T17:48:45.676Z,10.87
2023-03-30T17:52:50.354Z,10.83
2023-03-30T17:56:54.378Z,10.78
2023-03-30T18:00:57.722Z,10.69
2023-03-30T18:05:00.871Z,10.63
2023-03-30T18:09:05.881Z,10.53
2023-03-30T18:13:08.915Z,10.41
2023-03-30T18:17:13.553Z,10.32
2023-03-30T18:21:16.586Z,10.23
2023-03-30T18:25:29.753Z,10.22
2023-03-30T18:29:37.108Z,10.35
2023-03-30T18:33:40.232Z,10.39
2023-03-30T18:37:43.541Z,10.40
2023-03-30T18:41:47.564Z,10.32
2023-03-30T18:45:51.307Z,10.21
2023-03-30T18:49:54.148Z,10.10
2023-03-30T18:53:57.847Z,9.94
2023-03-30T18:58:02.658Z,9.85
2023-03-30T19:02:05.608Z,9.75
2023-03-30T19:06:12.076Z,9.67
2023-03-30T19:10:17.806Z,9.56
2023-03-30T19:14:21.929Z,9.50
2023-03-30T19:18:24.649Z,9.44
2023-03-30T19:22:27.362Z,9.37
2023-03-30T19:26:30.527Z,9.31
2023-03-30T19:30:38.406Z,9.21
2023-03-30T19:34:42.237Z,9.09
2023-03-30T19:38:45.863Z,8.96
2023-03-30T19:42:49.697Z,8.87
2023-03-30T19:46:53.812Z,8.85
2023-03-30T19:50:56.918Z,8.80
2023-03-30T19:54:59.679Z,8.75
2023-03-30T19:59:02.410Z,8.70
2023-03-30T20:03:06.713Z,8.62
2023-03-30T20:07:09.537Z,8.54
2023-03-30T20:11:13.031Z,8.43
2023-03-30T20:15:16.724Z,8.34
2023-03-30T20:19:28.883Z,8.25
2023-03-30T20:23:32.285Z,8.18
2023-03-30T20:27:35.608Z,8.06
2023-03-30T20:31:38.530Z,7.96
2023-03-30T20:35:43.147Z,7.88
2023-03-30T20:39:45.899Z,7.84
2023-03-30T20:43:56.966Z,7.78
2023-03-30T20:48:16.163Z,7.78
2023-03-30T20:52:22.320Z,7.74
2023-03-30T20:56:25.045Z,7.72
2023-03-30T21:00:28.065Z,7.67
2023-03-30T21:04:30.852Z,7.61
2023-03-30T21:08:35.366Z,7.53
2023-03-30T21:12:38.485Z,7.42
2023-03-30T21:16:42.027Z,7.31
2023-03-30T21:20:44.768Z,7.30
2023-03-30T21:24:48.770Z,7.28
2023-03-30T21:28:51.574Z,7.21
2023-03-30T21:32:54.238Z,7.21
2023-03-30T21:36:57.162Z,7.16
2023-03-30T21:41:04.618Z,7.18
2023-03-30T21:45:09.872Z,7.07
2023-03-30T21:49:12.862Z,7.00
2023-03-30T21:53:15.689Z,6.99
2023-03-30T21:57:19.739Z,7.03
2023-03-30T22:01:24.304Z,7.06
2023-03-30T22:05:27.185Z,7.03
2023-03-30T22:09:29.845Z,6.95
2023-03-30T22:13:34.000Z,6.90
2023-03-30T22:17:41.814Z,6.78
2023-03-30T22:21:44.598Z,6.69
2023-03-30T22:25:47.576Z,6.62
2023-03-30T22:29:51.812Z,6.55
2023-03-30T22:33:55.001Z,6.47
2023-03-30T22:37:57.633Z,6.46
2023-03-30T22:42:00.289Z,6.41
2023-03-30T22:46:04.669Z,6.41
2023-03-30T22:50:09.200Z,6.44
2023-03-30T22:54:11.843Z,6.51
2023-03-30T22:58:15.302Z,6.49
2023-03-30T23:02:19.362Z,6.47
2023-03-30T23:06:22.102Z,6.42
2023-03-30T23:10:25.514Z,6.38
2023-03-30T23:14:28.378Z,6.33
2023-03-30T23:18:32.406Z,6.32
2023-03-30T23:22:35.056Z,6.28
2023-03-30T23:26:38.221Z,6.21
2023-03-30T23:30:40.827Z,6.05
2023-03-30T23:34:44.816Z,5.97
2023-03-30T23:38:48.536Z,5.80
2023-03-30T23:42:51.402Z,5.72
2023-03-30T23:46:54.123Z,5.65
2023-03-30T23:50:59.114Z,5.61
2023-03-30T23:55:03.728Z,5.61
2023-03-30T23:59:06.546Z,5.60
